Time;durP1;ratioP1;P1;durP2;ratioP2;P2;SDS_P1;SDS_P2;PMS_P1;PMS_P2;Temp;Humidity;BMP_temperature;BMP_pressure;BME280_temperature;BME280_humidity;BME280_pressure;Samples;Min_cycle;Max_cycle;Signal;HPM_P1;HPM_P2
2022/01/12 00:02:10;;;;;;;4.57;1.00;;;;;;;;;;5054174;28;20454;-72
2022/01/12 00:04:38;;;;;;;6.03;1.27;;;;;;;;;;5054056;28;20137;-72
2022/01/12 00:07:05;;;;;;;3.97;1.17;;;;;;;;;;5055294;28;20096;-73
2022/01/12 00:09:32;;;;;;;7.65;1.58;;;;;;;;;;5054025;28;20029;-73
2022/01/12 00:12:00;;;;;;;4.63;1.40;;;;;;;;;;5053921;28;20033;-72
2022/01/12 00:14:30;;;;;;;4.55;1.38;;;;;;;;;;5055210;28;20048;-73
2022/01/12 00:17:00;;;;;;;4.82;1.35;;;;;;;;;;5053972;28;20151;-73
2022/01/12 00:19:29;;;;;;;5.43;1.10;;;;;;;;;;5053860;28;20021;-73
2022/01/12 00:21:56;;;;;;;4.90;1.08;;;;;;;;;;5053749;28;20432;-73
2022/01/12 00:24:39;;;;;;;4.20;1.02;;;;;;;;;;5053683;28;20397;-73
2022/01/12 00:35:26;;;;;;;6.63;1.50;;;;;;;;;;5053952;28;20101;-72
2022/01/12 00:37:54;;;;;;;5.10;1.23;;;;;;;;;;5054772;28;20025;-72
2022/01/12 00:40:21;;;;;;;5.78;1.65;;;;;;;;;;5054789;28;20036;-73
2022/01/12 00:42:48;;;;;;;5.80;1.20;;;;;;;;;;5054659;28;20048;-73
2022/01/12 00:45:17;;;;;;;4.55;1.45;;;;;;;;;;5054660;28;20032;-72
2022/01/12 00:47:44;;;;;;;5.55;1.25;;;;;;;;;;5054578;28;20028;-71
2022/01/12 00:50:12;;;;;;;5.95;0.88;;;;;;;;;;5054611;28;20028;-71
2022/01/12 00:52:39;;;;;;;6.15;1.25;;;;;;;;;;5053241;28;20036;-71
2022/01/12 00:55:06;;;;;;;6.22;0.60;;;;;;;;;;5054431;28;20021;-70
2022/01/12 00:57:34;;;;;;;2.38;0.70;;;;;;;;;;5054424;28;20017;-73
2022/01/12 01:00:01;;;;;;;6.38;1.10;;;;;;;;;;5054403;28;20473;-72
2022/01/12 01:02:28;;;;;;;3.10;0.70;;;;;;;;;;5054395;28;20042;-73
2022/01/12 01:04:56;;;;;;;3.47;0.90;;;;;;;;;;5052722;28;20045;-72
2022/01/12 01:07:23;;;;;;;5.63;1.00;;;;;;;;;;5054324;28;20017;-71
2022/01/12 01:10:15;;;;;;;3.67;0.60;;;;;;;;;;5054074;28;20021;-71
2022/01/12 01:12:37;;;;;;;3.97;0.80;;;;;;;;;;5053896;28;20085;-71
2022/01/12 01:15:08;;;;;;;2.47;0.70;;;;;;;;;;5054002;28;20021;-72
2022/01/12 01:25:40;;;;;;;4.28;0.95;;;;;;;;;;5053990;28;20079;-72
2022/01/12 01:28:09;;;;;;;4.18;0.82;;;;;;;;;;5054126;28;20029;-72
2022/01/12 01:30:38;;;;;;;3.10;0.77;;;;;;;;;;5053690;28;20024;-73
2022/01/12 01:33:08;;;;;;;3.10;0.73;;;;;;;;;;5052528;28;20064;-73
2022/01/12 01:35:37;;;;;;;3.33;0.50;;;;;;;;;;5053708;28;20024;-73
2022/01/12 01:38:05;;;;;;;4.75;1.17;;;;;;;;;;5052544;28;20032;-73
2022/01/12 01:40:37;;;;;;;3.33;0.95;;;;;;;;;;5053547;28;20055;-73
2022/01/12 01:53:56;;;;;;;3.65;0.70;;;;;;;;;;5053619;28;20040;-75
2022/01/12 01:56:23;;;;;;;4.13;0.88;;;;;;;;;;5053227;28;20032;-73
2022/01/12 01:58:50;;;;;;;5.28;0.80;;;;;;;;;;5053133;28;20021;-74
2022/01/12 02:01:18;;;;;;;5.65;0.88;;;;;;;;;;5051972;28;20029;-73
2022/01/12 02:03:45;;;;;;;3.28;0.90;;;;;;;;;;5051405;28;20056;-74
2022/01/12 02:06:12;;;;;;;3.38;0.90;;;;;;;;;;5053177;28;20110;-73
2022/01/12 02:08:39;;;;;;;4.30;0.95;;;;;;;;;;5053179;28;20036;-74
2022/01/12 02:11:08;;;;;;;4.00;0.60;;;;;;;;;;5051671;28;20029;-76
2022/01/12 02:13:35;;;;;;;4.40;0.95;;;;;;;;;;5053210;28;20021;-75
2022/01/12 02:16:03;;;;;;;5.07;1.00;;;;;;;;;;5052699;28;20039;-75
2022/01/12 02:18:40;;;;;;;3.80;0.85;;;;;;;;;;5051933;28;20489;-74
2022/01/12 02:40:27;;;;;;;3.65;0.75;;;;;;;;;;5052852;28;20033;-75
2022/01/12 02:51:15;;;;;;;3.20;0.80;;;;;;;;;;5052907;28;20099;-74
2022/01/12 02:53:44;;;;;;;4.90;0.90;;;;;;;;;;5052734;28;20493;-73
2022/01/12 02:56:15;;;;;;;2.50;0.63;;;;;;;;;;5051385;28;20028;-74
2022/01/12 02:58:43;;;;;;;5.00;0.60;;;;;;;;;;5054733;28;20025;-74
2022/01/12 03:03:58;;;;;;;4.07;0.98;;;;;;;;;;5056601;28;20496;-74
2022/01/12 03:06:29;;;;;;;3.22;0.85;;;;;;;;;;5055325;28;20025;-75
2022/01/12 03:08:56;;;;;;;1.77;0.70;;;;;;;;;;5055340;28;20032;-73
2022/01/12 03:11:24;;;;;;;3.95;0.80;;;;;;;;;;5055127;28;20035;-74
2022/01/12 03:13:52;;;;;;;2.53;0.50;;;;;;;;;;5056447;28;20017;-73
2022/01/12 03:16:23;;;;;;;2.45;0.60;;;;;;;;;;5056482;28;20392;-76
2022/01/12 03:18:51;;;;;;;4.03;0.70;;;;;;;;;;5056294;28;20013;-76
2022/01/12 03:21:20;;;;;;;2.25;0.60;;;;;;;;;;5056378;28;20599;-73
2022/01/12 03:23:47;;;;;;;3.53;0.85;;;;;;;;;;5056322;28;20032;-73
2022/01/12 03:26:14;;;;;;;2.38;0.75;;;;;;;;;;5054978;28;20025;-73
2022/01/12 03:28:42;;;;;;;3.13;0.80;;;;;;;;;;5054871;28;20055;-73
2022/01/12 03:31:18;;;;;;;5.32;1.00;;;;;;;;;;5054776;28;20067;-72
2022/01/12 03:38:59;;;;;;;4.50;0.85;;;;;;;;;;5055931;28;20555;-73
2022/01/12 03:41:28;;;;;;;3.70;0.90;;;;;;;;;;5055900;28;20025;-74
2022/01/12 03:43:56;;;;;;;3.85;0.77;;;;;;;;;;5054549;28;20086;-74
2022/01/12 03:46:26;;;;;;;3.78;0.60;;;;;;;;;;5055814;28;20048;-74
2022/01/12 03:48:53;;;;;;;5.13;0.90;;;;;;;;;;5054678;28;20029;-75
2022/01/12 03:51:20;;;;;;;2.53;0.65;;;;;;;;;;5055715;28;20021;-75
2022/01/12 03:53:47;;;;;;;3.08;0.80;;;;;;;;;;5055608;28;20104;-74
2022/01/12 03:56:15;;;;;;;7.03;1.40;;;;;;;;;;5055658;28;20028;-74
2022/01/12 03:58:42;;;;;;;5.32;0.90;;;;;;;;;;5054277;28;20017;-73
2022/01/12 04:01:09;;;;;;;3.50;0.80;;;;;;;;;;5055516;28;20033;-74
2022/01/12 04:03:41;;;;;;;5.13;1.00;;;;;;;;;;5055155;28;20520;-73
2022/01/12 04:08:54;;;;;;;3.92;0.88;;;;;;;;;;5055341;28;20048;-72
2022/01/12 04:11:21;;;;;;;7.15;1.65;;;;;;;;;;5055238;28;20108;-73
2022/01/12 04:13:50;;;;;;;4.93;0.93;;;;;;;;;;5055240;28;20358;-72
2022/01/12 04:16:17;;;;;;;5.82;1.35;;;;;;;;;;5055332;28;20067;-73
2022/01/12 04:18:45;;;;;;;5.68;0.93;;;;;;;;;;5054974;28;20438;-72
2022/01/12 04:21:13;;;;;;;4.90;1.10;;;;;;;;;;5055122;28;20056;-73
2022/01/12 04:23:41;;;;;;;4.95;0.88;;;;;;;;;;5054945;28;20024;-74
2022/01/12 04:26:10;;;;;;;4.05;0.90;;;;;;;;;;5053812;28;20036;-72
2022/01/12 04:28:39;;;;;;;5.15;1.00;;;;;;;;;;5053673;28;20048;-72
2022/01/12 04:31:07;;;;;;;8.07;1.42;;;;;;;;;;5054804;28;20074;-73
2022/01/12 04:33:35;;;;;;;5.50;0.98;;;;;;;;;;5053540;28;20036;-72
2022/01/12 04:36:03;;;;;;;3.95;0.90;;;;;;;;;;5053444;28;20105;-73
2022/01/12 04:38:34;;;;;;;3.88;0.98;;;;;;;;;;5054716;28;20017;-73
2022/01/12 04:41:02;;;;;;;5.82;1.00;;;;;;;;;;5053413;28;20029;-73
2022/01/12 04:43:29;;;;;;;5.50;1.10;;;;;;;;;;5054684;28;20036;-74
2022/01/12 04:48:50;;;;;;;4.45;0.73;;;;;;;;;;5054660;28;20056;-74
2022/01/12 04:51:18;;;;;;;2.35;0.70;;;;;;;;;;5054475;28;20032;-73
2022/01/12 04:53:46;;;;;;;5.18;0.82;;;;;;;;;;5054563;28;20021;-74
2022/01/12 04:56:13;;;;;;;4.35;0.75;;;;;;;;;;5054340;28;20021;-73
2022/01/12 04:58:40;;;;;;;3.25;0.90;;;;;;;;;;5054319;28;20024;-74
2022/01/12 05:01:11;;;;;;;4.80;0.93;;;;;;;;;;5054374;28;20025;-73
2022/01/12 05:09:45;;;;;;;4.25;0.75;;;;;;;;;;5054600;28;20090;-73
2022/01/12 05:15:06;;;;;;;5.25;1.02;;;;;;;;;;5054149;28;20090;-73
2022/01/12 05:17:34;;;;;;;5.38;1.33;;;;;;;;;;5054145;28;20017;-74
2022/01/12 05:20:01;;;;;;;5.55;0.93;;;;;;;;;;5053438;28;20028;-74
2022/01/12 05:22:28;;;;;;;4.63;1.10;;;;;;;;;;5054010;28;20031;-75
2022/01/12 05:24:55;;;;;;;5.30;1.17;;;;;;;;;;5052680;28;20021;-73
2022/01/12 05:27:22;;;;;;;5.45;1.10;;;;;;;;;;5053892;28;20021;-74
2022/01/12 05:29:50;;;;;;;5.18;1.05;;;;;;;;;;5052549;28;20021;-73
2022/01/12 05:32:17;;;;;;;4.15;0.98;;;;;;;;;;5053587;28;20135;-74
2022/01/12 05:34:44;;;;;;;2.83;0.90;;;;;;;;;;5053779;28;20066;-74
2022/01/12 05:37:11;;;;;;;5.22;1.00;;;;;;;;;;5053800;28;20446;-75
2022/01/12 05:39:38;;;;;;;5.30;1.00;;;;;;;;;;5053747;28;20017;-75
2022/01/12 05:42:05;;;;;;;4.72;1.00;;;;;;;;;;5052365;28;20079;-75
2022/01/12 05:44:35;;;;;;;3.78;0.98;;;;;;;;;;5052357;28;20083;-74
2022/01/12 05:47:05;;;;;;;5.50;1.45;;;;;;;;;;5052340;28;20461;-75
2022/01/12 05:49:36;;;;;;;2.63;0.93;;;;;;;;;;5053541;28;20107;-74
2022/01/12 05:52:04;;;;;;;3.80;1.10;;;;;;;;;;5053388;28;20021;-74
2022/01/12 05:54:31;;;;;;;5.70;1.17;;;;;;;;;;5053427;28;20543;-74
2022/01/12 05:56:59;;;;;;;3.22;1.23;;;;;;;;;;5053307;28;20081;-74
2022/01/12 05:59:26;;;;;;;4.28;1.05;;;;;;;;;;5053403;28;20446;-74
2022/01/12 06:01:53;;;;;;;5.65;1.20;;;;;;;;;;5053337;28;20029;-73
2022/01/12 06:04:20;;;;;;;2.90;1.00;;;;;;;;;;5051737;28;20045;-73
2022/01/12 06:06:47;;;;;;;4.60;1.65;;;;;;;;;;5051975;28;20170;-74
2022/01/12 06:09:14;;;;;;;5.78;1.70;;;;;;;;;;5053246;28;20501;-74
2022/01/12 06:11:41;;;;;;;6.05;1.60;;;;;;;;;;5051728;28;20501;-73
2022/01/12 06:14:10;;;;;;;7.88;1.60;;;;;;;;;;5053094;28;20100;-73
2022/01/12 06:16:37;;;;;;;6.72;2.03;;;;;;;;;;5052868;28;20021;-74
2022/01/12 06:19:04;;;;;;;5.40;1.75;;;;;;;;;;5053114;28;20013;-71
2022/01/12 06:21:31;;;;;;;8.48;1.88;;;;;;;;;;5052896;28;20021;-72
2022/01/12 06:23:58;;;;;;;6.55;2.05;;;;;;;;;;5053024;28;20405;-73
2022/01/12 06:26:26;;;;;;;6.18;2.38;;;;;;;;;;5053038;28;20029;-71
2022/01/12 06:29:22;;;;;;;9.68;2.28;;;;;;;;;;5053089;28;20021;-72
2022/01/12 06:31:42;;;;;;;8.52;2.00;;;;;;;;;;5051745;28;20029;-72
2022/01/12 06:34:09;;;;;;;6.95;1.60;;;;;;;;;;5052950;28;20470;-73
2022/01/12 06:36:36;;;;;;;6.80;1.50;;;;;;;;;;5052920;28;20024;-72
2022/01/12 06:39:06;;;;;;;5.80;1.98;;;;;;;;;;5051492;28;20393;-72
2022/01/12 06:41:33;;;;;;;7.43;1.38;;;;;;;;;;5052924;28;20167;-73
2022/01/12 06:44:01;;;;;;;5.72;1.80;;;;;;;;;;5052724;28;20025;-73
2022/01/12 06:46:30;;;;;;;9.45;2.15;;;;;;;;;;5051585;28;20127;-73
2022/01/12 06:48:57;;;;;;;9.27;1.90;;;;;;;;;;5051381;28;20110;-72
2022/01/12 06:51:25;;;;;;;8.02;2.00;;;;;;;;;;5052690;28;20033;-72
2022/01/12 06:53:55;;;;;;;8.30;1.77;;;;;;;;;;5052632;28;20042;-73
2022/01/12 06:56:22;;;;;;;4.78;1.20;;;;;;;;;;5052735;28;20020;-73
2022/01/12 06:58:49;;;;;;;4.93;1.38;;;;;;;;;;5052597;28;20473;-73
2022/01/12 07:01:16;;;;;;;6.55;1.38;;;;;;;;;;5051377;28;20402;-72
2022/01/12 07:03:44;;;;;;;4.57;1.40;;;;;;;;;;5052210;28;20064;-73
2022/01/12 07:06:11;;;;;;;7.22;1.80;;;;;;;;;;5052616;28;20371;-72
2022/01/12 07:08:38;;;;;;;8.77;2.05;;;;;;;;;;5052453;28;20438;-73
2022/01/12 07:11:05;;;;;;;7.13;1.70;;;;;;;;;;5052479;28;20033;-74
2022/01/12 07:13:32;;;;;;;8.73;2.35;;;;;;;;;;5052447;28;20492;-73
2022/01/12 07:16:00;;;;;;;6.88;1.80;;;;;;;;;;5052471;28;20029;-73
2022/01/12 07:18:29;;;;;;;6.20;2.40;;;;;;;;;;5051446;28;20162;-74
2022/01/12 07:20:57;;;;;;;8.02;3.25;;;;;;;;;;5052535;28;20028;-73
2022/01/12 07:23:24;;;;;;;9.68;3.13;;;;;;;;;;5052459;28;20362;-73
2022/01/12 07:25:51;;;;;;;8.43;1.98;;;;;;;;;;5052232;28;20096;-73
2022/01/12 07:28:19;;;;;;;9.98;2.72;;;;;;;;;;5050955;28;20393;-73
2022/01/12 07:30:46;;;;;;;5.63;1.85;;;;;;;;;;5050865;28;20033;-73
2022/01/12 07:33:13;;;;;;;5.55;1.70;;;;;;;;;;5052262;28;20051;-73
2022/01/12 07:35:41;;;;;;;7.10;1.58;;;;;;;;;;5052202;28;20021;-74
2022/01/12 07:38:09;;;;;;;5.45;1.73;;;;;;;;;;5052265;28;20478;-73
2022/01/12 07:40:36;;;;;;;6.80;2.10;;;;;;;;;;5050838;28;20017;-74
2022/01/12 07:43:04;;;;;;;6.13;1.10;;;;;;;;;;5052686;28;20049;-74
2022/01/12 07:45:31;;;;;;;4.13;1.10;;;;;;;;;;5055677;28;20029;-74
2022/01/12 07:47:58;;;;;;;6.55;1.60;;;;;;;;;;5055861;28;20100;-74
2022/01/12 07:50:26;;;;;;;4.30;1.55;;;;;;;;;;5055632;28;20478;-73
2022/01/12 07:52:53;;;;;;;3.10;1.35;;;;;;;;;;5055717;28;20017;-73
2022/01/12 07:55:21;;;;;;;3.03;1.05;;;;;;;;;;5055580;28;20527;-73
2022/01/12 07:57:49;;;;;;;4.50;1.13;;;;;;;;;;5055646;28;20096;-74
2022/01/12 08:00:16;;;;;;;5.68;1.20;;;;;;;;;;5054242;28;20048;-73
2022/01/12 08:02:44;;;;;;;5.15;1.30;;;;;;;;;;5055680;28;20052;-73
2022/01/12 08:05:11;;;;;;;3.22;1.05;;;;;;;;;;5055233;28;20429;-74
2022/01/12 08:07:39;;;;;;;5.72;1.35;;;;;;;;;;5055446;28;20504;-73
2022/01/12 08:10:08;;;;;;;4.85;1.63;;;;;;;;;;5055277;28;20045;-72
2022/01/12 08:12:35;;;;;;;5.50;1.20;;;;;;;;;;5055334;28;20029;-73
2022/01/12 08:15:04;;;;;;;5.40;1.35;;;;;;;;;;5053986;28;20021;-73
2022/01/12 08:17:31;;;;;;;4.03;1.27;;;;;;;;;;5055360;28;20504;-73
2022/01/12 08:20:00;;;;;;;3.45;1.48;;;;;;;;;;5055170;28;20106;-73
2022/01/12 08:22:27;;;;;;;3.72;1.00;;;;;;;;;;5055304;28;20025;-74
2022/01/12 08:24:55;;;;;;;3.08;1.10;;;;;;;;;;5055030;28;20485;-73
2022/01/12 08:27:22;;;;;;;4.38;1.10;;;;;;;;;;5053895;28;20071;-73
2022/01/12 08:29:50;;;;;;;2.47;0.70;;;;;;;;;;5053679;28;20029;-73
2022/01/12 08:32:18;;;;;;;3.15;0.98;;;;;;;;;;5054970;28;20414;-73
2022/01/12 08:34:45;;;;;;;2.42;0.80;;;;;;;;;;5054926;28;20017;-73
2022/01/12 08:37:12;;;;;;;4.07;0.90;;;;;;;;;;5055034;28;20032;-73
2022/01/12 08:39:39;;;;;;;3.92;1.10;;;;;;;;;;5053463;28;20432;-73
2022/01/12 08:42:06;;;;;;;1.27;0.80;;;;;;;;;;5053384;28;20111;-72
2022/01/12 08:44:35;;;;;;;2.90;0.75;;;;;;;;;;5053524;28;20504;-72
2022/01/12 08:47:02;;;;;;;3.25;0.82;;;;;;;;;;5054641;28;20025;-73
2022/01/12 08:49:29;;;;;;;2.83;1.08;;;;;;;;;;5054643;28;20040;-72
2022/01/12 08:51:57;;;;;;;3.65;1.23;;;;;;;;;;5054523;28;20029;-71
2022/01/12 08:54:24;;;;;;;3.55;0.60;;;;;;;;;;5054194;28;20037;-71
2022/01/12 08:56:51;;;;;;;2.72;0.80;;;;;;;;;;5054089;28;20040;-71
2022/01/12 08:59:19;;;;;;;2.88;0.60;;;;;;;;;;5054412;28;20021;-71
2022/01/12 09:01:46;;;;;;;2.72;1.00;;;;;;;;;;5054338;28;20025;-70
2022/01/12 09:04:13;;;;;;;2.88;1.10;;;;;;;;;;5054179;28;20044;-71
2022/01/12 09:06:40;;;;;;;3.63;0.85;;;;;;;;;;5052895;28;20037;-71
2022/01/12 09:09:08;;;;;;;2.95;1.00;;;;;;;;;;5054218;28;20031;-70
2022/01/12 09:11:35;;;;;;;2.97;0.98;;;;;;;;;;5053981;28;20038;-71
2022/01/12 09:14:02;;;;;;;2.97;0.95;;;;;;;;;;5054054;28;20381;-71
2022/01/12 09:16:29;;;;;;;2.85;0.90;;;;;;;;;;5053968;28;20051;-70
2022/01/12 09:18:57;;;;;;;2.45;0.80;;;;;;;;;;5054010;28;20078;-70
2022/01/12 09:21:24;;;;;;;3.38;1.17;;;;;;;;;;5053860;28;20454;-70
2022/01/12 09:23:51;;;;;;;2.42;0.90;;;;;;;;;;5054011;28;20074;-70
2022/01/12 09:26:18;;;;;;;2.55;1.40;;;;;;;;;;5053798;28;20071;-69
2022/01/12 09:28:47;;;;;;;3.75;1.00;;;;;;;;;;5053937;28;20032;-70
2022/01/12 09:31:15;;;;;;;2.58;0.98;;;;;;;;;;5052474;28;20067;-71
2022/01/12 09:33:42;;;;;;;4.20;0.93;;;;;;;;;;5053783;28;20146;-71
2022/01/12 09:36:09;;;;;;;3.38;1.00;;;;;;;;;;5053777;28;20111;-71
2022/01/12 09:38:36;;;;;;;3.10;1.00;;;;;;;;;;5053803;28;20017;-71
2022/01/12 09:41:04;;;;;;;3.17;0.90;;;;;;;;;;5053704;28;20025;-72
2022/01/12 09:43:34;;;;;;;3.38;1.15;;;;;;;;;;5053726;28;20028;-71
2022/01/12 09:46:02;;;;;;;3.70;1.20;;;;;;;;;;5052301;28;20516;-72
2022/01/12 09:48:33;;;;;;;1.85;0.80;;;;;;;;;;5052341;28;20032;-72
2022/01/12 09:51:04;;;;;;;4.93;1.33;;;;;;;;;;5053563;28;20017;-72
2022/01/12 09:53:32;;;;;;;2.55;1.10;;;;;;;;;;5053503;28;20017;-73
2022/01/12 09:55:59;;;;;;;4.88;1.17;;;;;;;;;;5053598;28;20096;-72
2022/01/12 09:58:33;;;;;;;3.90;1.58;;;;;;;;;;5053489;28;20409;-72
2022/01/12 10:01:02;;;;;;;6.53;2.03;;;;;;;;;;5053403;28;20041;-73
2022/01/12 10:03:29;;;;;;;6.40;2.05;;;;;;;;;;5053091;28;20053;-73
2022/01/12 10:06:00;;;;;;;7.88;2.17;;;;;;;;;;5053185;28;20033;-73
2022/01/12 10:08:27;;;;;;;5.35;1.80;;;;;;;;;;5053382;28;20025;-73
2022/01/12 10:11:08;;;;;;;5.55;1.85;;;;;;;;;;5053193;28;20028;-73
2022/01/12 10:13:37;;;;;;;2.63;1.17;;;;;;;;;;5052072;28;20025;-75
2022/01/12 10:16:13;;;;;;;7.25;2.13;;;;;;;;;;5052211;28;20526;-75
2022/01/12 10:18:54;;;;;;;5.30;1.98;;;;;;;;;;5052009;28;20023;-75
2022/01/12 10:21:35;;;;;;;1.98;1.02;;;;;;;;;;5053177;28;20497;-74
2022/01/12 10:24:07;;;;;;;4.40;1.88;;;;;;;;;;5051810;28;20036;-75
2022/01/12 10:26:39;;;;;;;4.50;1.80;;;;;;;;;;5051852;28;20035;-74
2022/01/12 10:29:10;;;;;;;4.72;1.40;;;;;;;;;;5051891;28;20032;-74
2022/01/12 10:31:46;;;;;;;5.07;1.90;;;;;;;;;;5051703;28;20033;-74
2022/01/12 10:34:13;;;;;;;1.50;0.95;;;;;;;;;;5052982;28;20021;-73
2022/01/12 10:36:42;;;;;;;4.47;1.60;;;;;;;;;;5052940;28;20384;-74
2022/01/12 10:39:10;;;;;;;2.78;1.27;;;;;;;;;;5051610;28;20056;-75
2022/01/12 10:41:37;;;;;;;6.50;1.08;;;;;;;;;;5051647;28;20032;-73
2022/01/12 10:44:05;;;;;;;5.20;1.33;;;;;;;;;;5051591;28;20043;-73
2022/01/12 10:46:32;;;;;;;2.85;1.10;;;;;;;;;;5051660;28;20021;-74
2022/01/12 10:49:00;;;;;;;3.53;1.00;;;;;;;;;;5052891;28;20393;-74
2022/01/12 10:51:29;;;;;;;2.65;1.00;;;;;;;;;;5052818;28;20410;-74
2022/01/12 10:54:03;;;;;;;3.75;0.98;;;;;;;;;;5052804;28;20021;-74
2022/01/12 10:56:31;;;;;;;4.32;1.05;;;;;;;;;;5052743;28;20021;-73
2022/01/12 10:58:59;;;;;;;2.95;0.70;;;;;;;;;;5051406;28;20116;-73
2022/01/12 11:01:27;;;;;;;3.10;0.90;;;;;;;;;;5052729;28;20021;-73
2022/01/12 11:03:55;;;;;;;3.25;0.80;;;;;;;;;;5052396;28;20159;-73
2022/01/12 11:06:25;;;;;;;3.60;0.80;;;;;;;;;;5051666;28;20029;-74
2022/01/12 11:08:52;;;;;;;1.92;0.80;;;;;;;;;;5052815;28;20108;-74
2022/01/12 11:11:20;;;;;;;3.67;1.13;;;;;;;;;;5051345;28;20464;-73
2022/01/12 11:13:50;;;;;;;3.55;1.50;;;;;;;;;;5051397;28;20485;-74
2022/01/12 11:16:20;;;;;;;4.57;1.50;;;;;;;;;;5052596;28;20028;-74
2022/01/12 11:18:47;;;;;;;;;;;;;;;;;;5054925;28;20035;-71
2022/01/12 11:21:32;;;;;;;3.92;1.15;;;;;;;;;;5056457;28;19909;-73
2022/01/12 11:24:02;;;;;;;5.18;0.90;;;;;;;;;;5056440;28;20021;-74
2022/01/12 11:26:33;;;;;;;3.30;1.08;;;;;;;;;;5056440;28;20029;-74
2022/01/12 11:29:00;;;;;;;2.55;1.20;;;;;;;;;;5056280;28;20095;-74
2022/01/12 11:31:38;;;;;;;4.70;1.27;;;;;;;;;;5056301;28;20021;-73
2022/01/12 11:34:05;;;;;;;3.47;1.38;;;;;;;;;;5056252;28;20108;-74
2022/01/12 11:36:39;;;;;;;4.32;1.00;;;;;;;;;;5055005;28;20049;-74
2022/01/12 11:39:06;;;;;;;5.00;1.30;;;;;;;;;;5054843;28;20021;-73
2022/01/12 11:41:34;;;;;;;4.45;1.42;;;;;;;;;;5056119;28;20033;-74
2022/01/12 11:44:07;;;;;;;3.60;1.48;;;;;;;;;;5054706;28;20549;-74
2022/01/12 11:46:46;;;;;;;7.82;1.35;;;;;;;;;;5056004;28;20116;-73
2022/01/12 11:49:24;;;;;;;4.63;1.33;;;;;;;;;;5055880;28;20036;-73
2022/01/12 11:51:52;;;;;;;4.15;1.10;;;;;;;;;;5055857;28;20017;-74
2022/01/12 11:54:20;;;;;;;7.18;2.00;;;;;;;;;;5055783;28;20465;-74
2022/01/12 11:57:04;;;;;;;4.35;1.20;;;;;;;;;;5055881;28;20079;-74
2022/01/12 11:59:32;;;;;;;2.55;0.80;;;;;;;;;;5055914;28;20017;-74
2022/01/12 12:02:14;;;;;;;6.70;2.13;;;;;;;;;;5054361;28;20024;-74
2022/01/12 12:04:52;;;;;;;9.35;1.45;;;;;;;;;;5054421;28;20128;-74
2022/01/12 12:07:19;;;;;;;4.45;1.05;;;;;;;;;;5054428;28;20029;-74
2022/01/12 12:09:56;;;;;;;6.43;1.77;;;;;;;;;;5055532;28;20052;-75
2022/01/12 12:12:24;;;;;;;4.57;1.60;;;;;;;;;;5055545;28;20033;-74
2022/01/12 12:14:55;;;;;;;4.25;1.30;;;;;;;;;;5055504;28;20079;-74
2022/01/12 12:17:26;;;;;;;6.53;1.60;;;;;;;;;;5055599;28;20051;-74
2022/01/12 12:19:54;;;;;;;4.03;1.63;;;;;;;;;;5054201;28;20029;-74
2022/01/12 12:22:25;;;;;;;4.40;1.05;;;;;;;;;;5055385;28;20032;-74
2022/01/12 12:25:11;;;;;;;6.28;1.77;;;;;;;;;;5055624;28;20492;-74
2022/01/12 12:27:39;;;;;;;7.30;1.80;;;;;;;;;;5055277;28;20025;-75
2022/01/12 12:30:07;;;;;;;6.03;1.73;;;;;;;;;;5052709;28;20025;-74
2022/01/12 12:32:36;;;;;;;3.63;1.63;;;;;;;;;;5055129;28;20021;-74
2022/01/12 12:35:05;;;;;;;5.70;1.95;;;;;;;;;;5053938;28;20021;-75
2022/01/12 12:37:37;;;;;;;4.50;1.92;;;;;;;;;;5055162;28;20385;-75
2022/01/12 12:40:16;;;;;;;6.85;2.03;;;;;;;;;;5053829;28;20025;-76
2022/01/12 12:42:43;;;;;;;6.95;1.95;;;;;;;;;;5055003;28;20025;-73
2022/01/12 12:45:10;;;;;;;5.07;2.13;;;;;;;;;;5053669;28;20038;-72
2022/01/12 12:47:38;;;;;;;4.78;1.40;;;;;;;;;;5054896;28;20049;-74
2022/01/12 12:50:08;;;;;;;6.97;1.70;;;;;;;;;;5054887;28;20105;-74
2022/01/12 12:52:36;;;;;;;6.75;1.50;;;;;;;;;;5053528;28;20137;-75
2022/01/12 12:55:11;;;;;;;5.85;1.52;;;;;;;;;;5054762;28;20021;-74
2022/01/12 12:57:47;;;;;;;5.30;1.60;;;;;;;;;;5053481;28;20127;-73
2022/01/12 13:00:16;;;;;;;6.15;1.85;;;;;;;;;;5054679;28;20474;-73
2022/01/12 13:02:48;;;;;;;3.88;1.70;;;;;;;;;;5053225;28;20060;-73
2022/01/12 13:05:17;;;;;;;2.67;1.65;;;;;;;;;;5054565;28;20401;-73
2022/01/12 13:07:45;;;;;;;5.40;1.73;;;;;;;;;;5054476;28;20104;-74
2022/01/12 13:10:14;;;;;;;3.97;1.38;;;;;;;;;;5054486;28;20082;-75
2022/01/12 13:12:43;;;;;;;3.03;1.60;;;;;;;;;;5053025;28;20033;-74
2022/01/12 13:15:14;;;;;;;7.28;1.42;;;;;;;;;;5053015;28;20044;-75
2022/01/12 13:17:41;;;;;;;3.35;1.08;;;;;;;;;;5053035;28;20021;-75
2022/01/12 13:22:47;;;;;;;5.47;1.88;;;;;;;;;;5054207;28;20052;-75
2022/01/12 13:25:15;;;;;;;3.30;1.35;;;;;;;;;;5054286;28;20021;-76
2022/01/12 13:27:43;;;;;;;4.70;1.42;;;;;;;;;;5054154;28;20025;-75
2022/01/12 13:30:12;;;;;;;4.72;1.77;;;;;;;;;;5054025;28;20017;-75
2022/01/12 13:32:39;;;;;;;5.03;1.52;;;;;;;;;;5053981;28;20040;-75
2022/01/12 13:35:09;;;;;;;6.63;1.65;;;;;;;;;;5053962;28;20143;-75
2022/01/12 13:37:36;;;;;;;3.65;1.35;;;;;;;;;;5053889;28;20013;-74
2022/01/12 13:40:05;;;;;;;6.80;1.63;;;;;;;;;;5052637;28;20029;-74
2022/01/12 13:42:32;;;;;;;4.85;1.58;;;;;;;;;;5053449;28;20032;-75
2022/01/12 13:45:09;;;;;;;8.32;1.77;;;;;;;;;;5052533;28;20028;-74
2022/01/12 13:47:38;;;;;;;6.65;1.80;;;;;;;;;;5052672;28;20541;-74
2022/01/12 13:50:09;;;;;;;6.85;1.52;;;;;;;;;;5052400;28;20523;-73
2022/01/12 13:52:37;;;;;;;2.55;1.45;;;;;;;;;;5052212;28;20059;-74
2022/01/12 13:55:14;;;;;;;3.72;1.38;;;;;;;;;;5052319;28;20044;-75
2022/01/12 13:57:41;;;;;;;3.97;1.45;;;;;;;;;;5052314;28;20071;-75
2022/01/12 14:00:18;;;;;;;4.53;1.38;;;;;;;;;;5052224;28;20409;-75
2022/01/12 14:02:46;;;;;;;4.65;1.48;;;;;;;;;;5053606;28;20485;-76
2022/01/12 14:05:19;;;;;;;6.15;1.42;;;;;;;;;;5053455;28;20044;-75
2022/01/12 14:08:00;;;;;;;3.58;1.42;;;;;;;;;;5053462;28;20104;-75
2022/01/12 14:10:29;;;;;;;3.58;1.38;;;;;;;;;;5053596;28;20401;-75
2022/01/12 14:12:56;;;;;;;4.82;1.50;;;;;;;;;;5053271;28;20025;-75
2022/01/12 14:15:24;;;;;;;5.18;1.55;;;;;;;;;;5052036;28;20021;-75
2022/01/12 14:17:52;;;;;;;3.55;1.35;;;;;;;;;;5051889;28;20021;-74
2022/01/12 14:20:31;;;;;;;4.65;1.30;;;;;;;;;;5051929;28;20101;-74
2022/01/12 14:22:59;;;;;;;13.18;1.77;;;;;;;;;;5051864;28;20551;-75
2022/01/12 14:25:38;;;;;;;1.73;1.05;;;;;;;;;;5053253;28;20021;-74
2022/01/12 14:28:06;;;;;;;5.00;1.40;;;;;;;;;;5051798;28;20040;-74
2022/01/12 14:30:33;;;;;;;5.45;1.23;;;;;;;;;;5053098;28;20025;-74
2022/01/12 14:33:01;;;;;;;3.83;1.15;;;;;;;;;;5052910;28;20111;-74
2022/01/12 14:35:28;;;;;;;2.50;1.20;;;;;;;;;;5053038;28;20072;-74
2022/01/12 14:37:56;;;;;;;3.25;1.25;;;;;;;;;;5051632;28;20122;-74
2022/01/12 14:40:24;;;;;;;3.58;1.58;;;;;;;;;;5051645;28;20059;-74
2022/01/12 14:42:53;;;;;;;3.75;1.30;;;;;;;;;;5052909;28;20032;-74
2022/01/12 14:45:23;;;;;;;4.47;1.30;;;;;;;;;;5052936;28;20151;-74
2022/01/12 14:47:52;;;;;;;3.17;1.52;;;;;;;;;;5052993;28;20405;-75
2022/01/12 14:50:20;;;;;;;3.75;1.40;;;;;;;;;;5051510;28;20406;-73
2022/01/12 14:52:47;;;;;;;4.97;1.65;;;;;;;;;;5051508;28;20031;-74
2022/01/12 14:55:15;;;;;;;4.93;1.33;;;;;;;;;;5055716;28;20021;-73
2022/01/12 14:57:42;;;;;;;3.15;1.10;;;;;;;;;;5056970;28;20047;-74
2022/01/12 15:00:16;;;;;;;3.08;1.00;;;;;;;;;;5055630;28;20035;-74
2022/01/12 15:02:44;;;;;;;3.30;1.27;;;;;;;;;;5056898;28;20017;-74
2022/01/12 15:05:11;;;;;;;3.63;1.17;;;;;;;;;;5056571;28;20124;-73
2022/01/12 15:07:38;;;;;;;4.95;1.23;;;;;;;;;;5056716;28;20033;-73
2022/01/12 15:10:07;;;;;;;3.50;1.20;;;;;;;;;;5056760;28;20024;-73
2022/01/12 15:12:38;;;;;;;2.85;1.15;;;;;;;;;;5056567;28;20029;-73
2022/01/12 15:15:07;;;;;;;2.72;1.17;;;;;;;;;;5055342;28;20028;-73
2022/01/12 15:17:35;;;;;;;4.70;1.33;;;;;;;;;;5056534;28;20043;-73
2022/01/12 15:20:07;;;;;;;4.28;1.08;;;;;;;;;;5056557;28;20021;-73
2022/01/12 15:22:36;;;;;;;2.88;0.95;;;;;;;;;;5055285;28;20028;-74
2022/01/12 15:25:03;;;;;;;3.55;1.40;;;;;;;;;;5038676;28;20440;-73
2022/01/12 15:27:30;;;;;;;4.95;1.10;;;;;;;;;;5056339;28;20024;-74
2022/01/12 15:29:57;;;;;;;4.03;1.17;;;;;;;;;;5054992;28;20419;-73
2022/01/12 15:32:26;;;;;;;3.20;1.10;;;;;;;;;;5056230;28;20463;-74
2022/01/12 15:34:54;;;;;;;6.95;1.50;;;;;;;;;;5054991;28;20029;-73
2022/01/12 15:37:22;;;;;;;5.65;1.17;;;;;;;;;;5056247;28;20095;-74
2022/01/12 15:39:49;;;;;;;2.45;1.00;;;;;;;;;;5056090;28;20024;-74
2022/01/12 15:42:16;;;;;;;3.13;1.40;;;;;;;;;;5054880;28;20453;-74
2022/01/12 15:44:44;;;;;;;6.50;1.63;;;;;;;;;;5054862;28;20029;-74
2022/01/12 15:47:12;;;;;;;4.10;1.15;;;;;;;;;;5056068;28;20113;-73
2022/01/12 15:49:40;;;;;;;5.78;1.70;;;;;;;;;;5054666;28;20568;-74
2022/01/12 15:52:07;;;;;;;7.07;1.90;;;;;;;;;;5054539;28;20029;-74
2022/01/12 15:54:35;;;;;;;3.30;1.20;;;;;;;;;;5055940;28;20017;-74
2022/01/12 15:57:05;;;;;;;5.93;1.92;;;;;;;;;;5055879;28;20021;-74
2022/01/12 15:59:33;;;;;;;5.63;1.52;;;;;;;;;;5054505;28;20489;-74
2022/01/12 16:02:00;;;;;;;3.28;1.23;;;;;;;;;;5055737;28;20479;-74
2022/01/12 16:04:27;;;;;;;4.93;1.40;;;;;;;;;;5053854;28;20497;-74
2022/01/12 16:06:55;;;;;;;4.22;1.30;;;;;;;;;;5055689;28;20530;-74
2022/01/12 16:09:22;;;;;;;5.65;1.80;;;;;;;;;;5055633;28;20063;-74
2022/01/12 16:11:51;;;;;;;6.55;1.50;;;;;;;;;;5055506;28;20079;-74
2022/01/12 16:14:18;;;;;;;3.40;1.00;;;;;;;;;;5054209;28;20021;-74